sensor_id;sensor_type;location;lat;lon;timestamp;P1;durP1;ratioP1;P2;durP2;ratioP2
19727;SDS011;10015;52.530;13.390;2022-08-01T04:16:14;6.57;;;5.00;;
19727;SDS011;10015;52.530;13.390;2022-08-01T04:23:55;6.22;;;4.50;;
19727;SDS011;10015;52.530;13.390;2022-08-01T04:30:22;8.80;;;5.60;;
19727;SDS011;10015;52.530;13.390;2022-08-01T04:32:52;9.10;;;4.93;;
19727;SDS011;10015;52.530;13.390;2022-08-01T04:35:20;10.35;;;5.65;;
19727;SDS011;10015;52.530;13.390;2022-08-01T04:37:50;10.43;;;6.50;;
19727;SDS011;10015;52.530;13.390;2022-08-01T04:40:18;12.68;;;6.75;;
19727;SDS011;10015;52.530;13.390;2022-08-01T04:42:47;9.70;;;6.15;;
19727;SDS011;10015;52.530;13.390;2022-08-01T04:45:15;10.05;;;6.05;;
19727;SDS011;10015;52.530;13.390;2022-08-01T04:47:41;9.40;;;6.30;;
19727;SDS011;10015;52.530;13.390;2022-08-01T04:50:08;9.05;;;5.88;;
19727;SDS011;10015;52.530;13.390;2022-08-01T04:52:36;9.13;;;5.68;;
19727;SDS011;10015;52.530;13.390;2022-08-01T04:55:03;8.93;;;5.88;;
19727;SDS011;10015;52.530;13.390;2022-08-01T04:57:32;9.93;;;6.15;;
19727;SDS011;10015;52.530;13.390;2022-08-01T05:00:04;13.15;;;6.80;;
19727;SDS011;10015;52.530;13.390;2022-08-01T05:02:31;12.10;;;6.85;;
19727;SDS011;10015;52.530;13.390;2022-08-01T05:04:57;11.52;;;7.18;;
19727;SDS011;10015;52.530;13.390;2022-08-01T05:07:23;9.98;;;7.40;;
19727;SDS011;10015;52.530;13.390;2022-08-01T05:09:49;11.05;;;6.80;;
19727;SDS011;10015;52.530;13.390;2022-08-01T05:12:16;10.35;;;6.70;;
19727;SDS011;10015;52.530;13.390;2022-08-01T05:14:42;10.07;;;6.82;;
19727;SDS011;10015;52.530;13.390;2022-08-01T05:17:08;11.77;;;8.15;;
19727;SDS011;10015;52.530;13.390;2022-08-01T05:19:35;12.82;;;7.40;;
19727;SDS011;10015;52.530;13.390;2022-08-01T05:22:03;10.02;;;7.03;;
19727;SDS011;10015;52.530;13.390;2022-08-01T05:24:33;11.93;;;7.70;;
19727;SDS011;10015;52.530;13.390;2022-08-01T05:27:00;10.95;;;7.35;;
19727;SDS011;10015;52.530;13.390;2022-08-01T05:29:26;10.48;;;7.18;;
19727;SDS011;10015;52.530;13.390;2022-08-01T05:31:52;11.35;;;7.20;;
19727;SDS011;10015;52.530;13.390;2022-08-01T05:34:19;11.48;;;7.93;;
19727;SDS011;10015;52.530;13.390;2022-08-01T05:36:45;9.23;;;6.78;;
19727;SDS011;10015;52.530;13.390;2022-08-01T05:39:11;11.80;;;7.97;;
19727;SDS011;10015;52.530;13.390;2022-08-01T05:41:37;10.75;;;6.47;;
19727;SDS011;10015;52.530;13.390;2022-08-01T05:44:04;10.40;;;6.40;;
19727;SDS011;10015;52.530;13.390;2022-08-01T05:46:30;8.48;;;6.45;;
19727;SDS011;10015;52.530;13.390;2022-08-01T05:48:57;8.30;;;5.43;;
19727;SDS011;10015;52.530;13.390;2022-08-01T05:51:23;8.10;;;5.60;;
19727;SDS011;10015;52.530;13.390;2022-08-01T05:53:50;9.55;;;5.47;;
19727;SDS011;10015;52.530;13.390;2022-08-01T05:56:15;8.90;;;5.95;;
19727;SDS011;10015;52.530;13.390;2022-08-01T05:58:41;7.40;;;5.32;;
19727;SDS011;10015;52.530;13.390;2022-08-01T06:01:07;7.30;;;5.50;;
19727;SDS011;10015;52.530;13.390;2022-08-01T06:03:33;6.00;;;5.20;;
19727;SDS011;10015;52.530;13.390;2022-08-01T06:05:59;6.07;;;4.95;;
19727;SDS011;10015;52.530;13.390;2022-08-01T06:08:25;8.88;;;6.40;;
19727;SDS011;10015;52.530;13.390;2022-08-01T06:10:51;7.60;;;5.70;;
19727;SDS011;10015;52.530;13.390;2022-08-01T06:13:18;8.65;;;5.75;;
19727;SDS011;10015;52.530;13.390;2022-08-01T06:15:47;6.05;;;5.03;;
19727;SDS011;10015;52.530;13.390;2022-08-01T06:18:13;5.82;;;4.50;;
19727;SDS011;10015;52.530;13.390;2022-08-01T06:20:40;8.15;;;5.68;;
19727;SDS011;10015;52.530;13.390;2022-08-01T06:23:07;7.50;;;5.75;;
19727;SDS011;10015;52.530;13.390;2022-08-01T06:25:33;6.53;;;4.82;;
19727;SDS011;10015;52.530;13.390;2022-08-01T06:27:59;6.15;;;4.97;;
19727;SDS011;10015;52.530;13.390;2022-08-01T06:30:26;5.78;;;4.35;;
19727;SDS011;10015;52.530;13.390;2022-08-01T06:32:52;5.45;;;4.55;;
19727;SDS011;10015;52.530;13.390;2022-08-01T06:35:21;5.45;;;3.90;;
19727;SDS011;10015;52.530;13.390;2022-08-01T06:37:47;5.35;;;3.92;;
19727;SDS011;10015;52.530;13.390;2022-08-01T06:40:14;3.25;;;2.95;;
19727;SDS011;10015;52.530;13.390;2022-08-01T06:42:40;3.75;;;3.10;;
19727;SDS011;10015;52.530;13.390;2022-08-01T06:45:07;4.00;;;3.17;;
19727;SDS011;10015;52.530;13.390;2022-08-01T06:47:35;4.82;;;3.30;;
19727;SDS011;10015;52.530;13.390;2022-08-01T06:50:02;3.83;;;3.08;;
19727;SDS011;10015;52.530;13.390;2022-08-01T06:52:28;4.72;;;2.97;;
19727;SDS011;10015;52.530;13.390;2022-08-01T06:54:54;4.10;;;3.25;;
19727;SDS011;10015;52.530;13.390;2022-08-01T06:57:20;3.53;;;3.00;;
19727;SDS011;10015;52.530;13.390;2022-08-01T06:59:46;3.83;;;2.70;;
19727;SDS011;10015;52.530;13.390;2022-08-01T07:02:12;5.00;;;2.85;;
19727;SDS011;10015;52.530;13.390;2022-08-01T07:04:38;3.55;;;3.03;;
19727;SDS011;10015;52.530;13.390;2022-08-01T07:07:03;6.20;;;2.80;;
19727;SDS011;10015;52.530;13.390;2022-08-01T07:09:29;7.20;;;2.60;;
19727;SDS011;10015;52.530;13.390;2022-08-01T07:11:55;3.33;;;2.70;;
19727;SDS011;10015;52.530;13.390;2022-08-01T07:14:21;3.67;;;2.58;;
19727;SDS011;10015;52.530;13.390;2022-08-01T07:16:48;3.25;;;2.63;;
19727;SDS011;10015;52.530;13.390;2022-08-01T07:19:15;2.88;;;2.63;;
19727;SDS011;10015;52.530;13.390;2022-08-01T07:21:41;2.75;;;2.33;;
19727;SDS011;10015;52.530;13.390;2022-08-01T07:24:07;3.33;;;2.90;;
19727;SDS011;10015;52.530;13.390;2022-08-01T07:26:35;2.83;;;2.63;;
19727;SDS011;10015;52.530;13.390;2022-08-01T07:29:01;3.90;;;3.35;;
19727;SDS011;10015;52.530;13.390;2022-08-01T07:31:28;4.47;;;2.63;;
19727;SDS011;10015;52.530;13.390;2022-08-01T07:33:54;6.05;;;3.53;;
19727;SDS011;10015;52.530;13.390;2022-08-01T07:36:20;3.92;;;3.45;;
19727;SDS011;10015;52.530;13.390;2022-08-01T07:38:45;4.75;;;3.00;;
19727;SDS011;10015;52.530;13.390;2022-08-01T07:41:12;4.22;;;3.20;;
19727;SDS011;10015;52.530;13.390;2022-08-01T07:43:38;4.32;;;2.88;;
19727;SDS011;10015;52.530;13.390;2022-08-01T07:46:04;3.20;;;2.90;;
19727;SDS011;10015;52.530;13.390;2022-08-01T07:48:30;2.72;;;2.53;;
19727;SDS011;10015;52.530;13.390;2022-08-01T07:50:56;3.28;;;2.70;;
19727;SDS011;10015;52.530;13.390;2022-08-01T07:53:22;2.70;;;2.40;;
19727;SDS011;10015;52.530;13.390;2022-08-01T07:55:48;5.53;;;3.00;;
19727;SDS011;10015;52.530;13.390;2022-08-01T07:58:15;4.43;;;2.78;;
19727;SDS011;10015;52.530;13.390;2022-08-01T08:00:41;4.03;;;3.33;;
19727;SDS011;10015;52.530;13.390;2022-08-01T08:03:07;4.80;;;3.25;;
19727;SDS011;10015;52.530;13.390;2022-08-01T08:05:33;4.00;;;3.38;;
19727;SDS011;10015;52.530;13.390;2022-08-01T08:08:06;3.35;;;3.00;;
19727;SDS011;10015;52.530;13.390;2022-08-01T08:10:35;4.40;;;3.40;;
19727;SDS011;10015;52.530;13.390;2022-08-01T08:13:01;4.07;;;3.63;;
19727;SDS011;10015;52.530;13.390;2022-08-01T08:15:27;5.18;;;3.70;;
19727;SDS011;10015;52.530;13.390;2022-08-01T08:17:54;4.55;;;3.75;;
19727;SDS011;10015;52.530;13.390;2022-08-01T08:20:20;4.30;;;3.22;;
19727;SDS011;10015;52.530;13.390;2022-08-01T08:22:55;5.63;;;3.58;;
19727;SDS011;10015;52.530;13.390;2022-08-01T08:25:23;6.60;;;4.00;;
19727;SDS011;10015;52.530;13.390;2022-08-01T08:27:50;4.95;;;3.45;;
19727;SDS011;10015;52.530;13.390;2022-08-01T08:30:17;7.25;;;3.10;;
19727;SDS011;10015;52.530;13.390;2022-08-01T08:32:43;3.38;;;3.05;;
19727;SDS011;10015;52.530;13.390;2022-08-01T08:35:09;3.72;;;2.97;;
19727;SDS011;10015;52.530;13.390;2022-08-01T08:37:36;3.50;;;2.80;;
19727;SDS011;10015;52.530;13.390;2022-08-01T08:40:03;4.28;;;2.78;;
19727;SDS011;10015;52.530;13.390;2022-08-01T08:42:30;3.97;;;3.10;;
19727;SDS011;10015;52.530;13.390;2022-08-01T08:44:56;5.28;;;2.70;;
19727;SDS011;10015;52.530;13.390;2022-08-01T08:47:22;3.53;;;3.00;;
19727;SDS011;10015;52.530;13.390;2022-08-01T08:49:51;3.55;;;3.22;;
19727;SDS011;10015;52.530;13.390;2022-08-01T08:52:19;3.67;;;3.20;;
19727;SDS011;10015;52.530;13.390;2022-08-01T08:54:46;4.80;;;2.47;;
19727;SDS011;10015;52.530;13.390;2022-08-01T08:57:14;2.95;;;2.00;;
19727;SDS011;10015;52.530;13.390;2022-08-01T08:59:42;4.28;;;2.10;;
19727;SDS011;10015;52.530;13.390;2022-08-01T09:02:09;3.20;;;1.80;;
19727;SDS011;10015;52.530;13.390;2022-08-01T09:04:37;2.00;;;1.70;;
19727;SDS011;10015;52.530;13.390;2022-08-01T09:07:05;3.45;;;1.42;;
19727;SDS011;10015;52.530;13.390;2022-08-01T09:09:33;1.88;;;1.23;;
19727;SDS011;10015;52.530;13.390;2022-08-01T09:11:59;3.28;;;1.60;;
19727;SDS011;10015;52.530;13.390;2022-08-01T09:14:25;2.13;;;1.80;;
19727;SDS011;10015;52.530;13.390;2022-08-01T09:17:03;3.88;;;1.50;;
19727;SDS011;10015;52.530;13.390;2022-08-01T09:19:42;3.47;;;1.35;;
19727;SDS011;10015;52.530;13.390;2022-08-01T09:22:11;2.28;;;1.35;;
19727;SDS011;10015;52.530;13.390;2022-08-01T09:24:38;2.03;;;1.20;;
19727;SDS011;10015;52.530;13.390;2022-08-01T09:27:21;1.70;;;1.60;;
19727;SDS011;10015;52.530;13.390;2022-08-01T09:29:50;3.20;;;1.70;;
19727;SDS011;10015;52.530;13.390;2022-08-01T09:32:17;2.53;;;1.60;;
19727;SDS011;10015;52.530;13.390;2022-08-01T09:34:44;1.80;;;1.70;;
19727;SDS011;10015;52.530;13.390;2022-08-01T09:37:11;1.70;;;1.60;;
19727;SDS011;10015;52.530;13.390;2022-08-01T09:39:39;2.22;;;1.65;;
19727;SDS011;10015;52.530;13.390;2022-08-01T09:42:24;3.97;;;1.85;;
19727;SDS011;10015;52.530;13.390;2022-08-01T09:44:51;3.05;;;1.75;;
19727;SDS011;10015;52.530;13.390;2022-08-01T09:47:18;3.42;;;2.08;;
19727;SDS011;10015;52.530;13.390;2022-08-01T09:49:52;2.80;;;1.70;;
19727;SDS011;10015;52.530;13.390;2022-08-01T09:52:20;4.10;;;1.67;;
19727;SDS011;10015;52.530;13.390;2022-08-01T09:55:06;2.10;;;1.77;;
19727;SDS011;10015;52.530;13.390;2022-08-01T09:57:32;2.17;;;1.98;;
19727;SDS011;10015;52.530;13.390;2022-08-01T09:59:59;3.20;;;1.80;;
19727;SDS011;10015;52.530;13.390;2022-08-01T10:02:36;2.58;;;1.90;;
19727;SDS011;10015;52.530;13.390;2022-08-01T10:05:04;4.50;;;1.92;;
19727;SDS011;10015;52.530;13.390;2022-08-01T10:07:32;2.65;;;1.83;;
19727;SDS011;10015;52.530;13.390;2022-08-01T10:10:12;5.28;;;2.25;;
19727;SDS011;10015;52.530;13.390;2022-08-01T10:12:40;5.60;;;2.10;;
19727;SDS011;10015;52.530;13.390;2022-08-01T10:15:06;3.85;;;2.03;;
19727;SDS011;10015;52.530;13.390;2022-08-01T10:17:34;3.38;;;2.08;;
19727;SDS011;10015;52.530;13.390;2022-08-01T10:20:04;2.95;;;1.90;;
19727;SDS011;10015;52.530;13.390;2022-08-01T10:22:30;1.90;;;1.65;;
19727;SDS011;10015;52.530;13.390;2022-08-01T10:25:01;1.70;;;1.60;;
19727;SDS011;10015;52.530;13.390;2022-08-01T10:27:29;4.63;;;2.00;;
19727;SDS011;10015;52.530;13.390;2022-08-01T10:29:58;1.70;;;1.60;;
19727;SDS011;10015;52.530;13.390;2022-08-01T10:32:30;1.92;;;1.73;;
19727;SDS011;10015;52.530;13.390;2022-08-01T10:34:56;2.65;;;1.75;;
19727;SDS011;10015;52.530;13.390;2022-08-01T10:37:24;3.08;;;1.98;;
19727;SDS011;10015;52.530;13.390;2022-08-01T10:39:50;1.90;;;1.73;;
19727;SDS011;10015;52.530;13.390;2022-08-01T10:42:17;2.75;;;1.70;;
19727;SDS011;10015;52.530;13.390;2022-08-01T10:44:44;3.53;;;1.80;;
19727;SDS011;10015;52.530;13.390;2022-08-01T10:47:13;1.80;;;1.70;;
19727;SDS011;10015;52.530;13.390;2022-08-01T10:49:53;3.55;;;1.88;;
19727;SDS011;10015;52.530;13.390;2022-08-01T10:52:28;4.93;;;1.75;;
19727;SDS011;10015;52.530;13.390;2022-08-01T10:55:04;1.80;;;1.40;;
19727;SDS011;10015;52.530;13.390;2022-08-01T10:57:42;1.90;;;1.40;;
19727;SDS011;10015;52.530;13.390;2022-08-01T11:00:10;2.53;;;1.50;;
19727;SDS011;10015;52.530;13.390;2022-08-01T11:02:44;1.40;;;1.30;;
19727;SDS011;10015;52.530;13.390;2022-08-01T11:05:26;2.50;;;1.63;;
19727;SDS011;10015;52.530;13.390;2022-08-01T11:07:55;2.25;;;1.30;;
19727;SDS011;10015;52.530;13.390;2022-08-01T11:13:03;2.05;;;1.20;;
19727;SDS011;10015;52.530;13.390;2022-08-01T11:15:33;1.55;;;1.30;;
19727;SDS011;10015;52.530;13.390;2022-08-01T11:18:00;3.63;;;1.30;;
19727;SDS011;10015;52.530;13.390;2022-08-01T11:20:30;2.05;;;1.27;;
19727;SDS011;10015;52.530;13.390;2022-08-01T11:33:10;3.58;;;1.50;;
19727;SDS011;10015;52.530;13.390;2022-08-01T11:35:37;1.58;;;1.48;;
19727;SDS011;10015;52.530;13.390;2022-08-01T11:38:27;1.77;;;1.50;;
19727;SDS011;10015;52.530;13.390;2022-08-01T11:44:03;2.13;;;1.40;;
19727;SDS011;10015;52.530;13.390;2022-08-01T11:49:23;3.63;;;1.65;;
19727;SDS011;10015;52.530;13.390;2022-08-01T11:51:57;4.43;;;1.73;;
19727;SDS011;10015;52.530;13.390;2022-08-01T11:57:09;2.33;;;1.60;;
19727;SDS011;10015;52.530;13.390;2022-08-01T11:59:38;1.77;;;1.40;;
19727;SDS011;10015;52.530;13.390;2022-08-01T12:02:18;3.30;;;1.23;;
19727;SDS011;10015;52.530;13.390;2022-08-01T12:04:51;1.30;;;1.20;;
19727;SDS011;10015;52.530;13.390;2022-08-01T12:07:18;3.20;;;1.25;;
19727;SDS011;10015;52.530;13.390;2022-08-01T12:09:44;1.58;;;1.17;;
19727;SDS011;10015;52.530;13.390;2022-08-01T12:12:14;2.47;;;1.17;;
19727;SDS011;10015;52.530;13.390;2022-08-01T12:14:43;1.73;;;1.20;;
19727;SDS011;10015;52.530;13.390;2022-08-01T12:17:10;1.98;;;1.20;;
19727;SDS011;10015;52.530;13.390;2022-08-01T12:19:36;1.10;;;1.00;;
19727;SDS011;10015;52.530;13.390;2022-08-01T12:22:09;1.23;;;1.00;;
19727;SDS011;10015;52.530;13.390;2022-08-01T12:24:38;2.47;;;1.02;;
19727;SDS011;10015;52.530;13.390;2022-08-01T12:27:05;2.13;;;1.17;;
19727;SDS011;10015;52.530;13.390;2022-08-01T12:29:35;1.35;;;1.00;;
19727;SDS011;10015;52.530;13.390;2022-08-01T12:34:53;1.40;;;1.30;;
19727;SDS011;10015;52.530;13.390;2022-08-01T12:37:20;1.63;;;1.10;;
19727;SDS011;10015;52.530;13.390;2022-08-01T12:39:46;1.77;;;1.10;;
19727;SDS011;10015;52.530;13.390;2022-08-01T12:42:13;1.55;;;1.20;;
19727;SDS011;10015;52.530;13.390;2022-08-01T12:44:40;1.20;;;1.10;;
19727;SDS011;10015;52.530;13.390;2022-08-01T12:47:08;2.58;;;1.30;;
19727;SDS011;10015;52.530;13.390;2022-08-01T12:49:37;2.50;;;1.20;;
19727;SDS011;10015;52.530;13.390;2022-08-01T12:52:06;1.30;;;1.20;;
19727;SDS011;10015;52.530;13.390;2022-08-01T12:54:59;2.13;;;1.30;;
19727;SDS011;10015;52.530;13.390;2022-08-01T12:57:29;2.28;;;1.33;;
19727;SDS011;10015;52.530;13.390;2022-08-01T13:00:05;1.40;;;1.30;;
19727;SDS011;10015;52.530;13.390;2022-08-01T13:02:39;1.42;;;1.20;;
19727;SDS011;10015;52.530;13.390;2022-08-01T13:05:06;1.40;;;1.30;;
19727;SDS011;10015;52.530;13.390;2022-08-01T13:07:44;3.28;;;1.40;;
19727;SDS011;10015;52.530;13.390;2022-08-01T13:10:13;2.17;;;1.35;;
19727;SDS011;10015;52.530;13.390;2022-08-01T13:12:41;1.30;;;1.20;;
19727;SDS011;10015;52.530;13.390;2022-08-01T13:15:33;1.40;;;1.30;;
19727;SDS011;10015;52.530;13.390;2022-08-01T13:18:02;1.55;;;1.10;;
19727;SDS011;10015;52.530;13.390;2022-08-01T13:21:11;1.25;;;1.15;;
19727;SDS011;10015;52.530;13.390;2022-08-01T13:29:05;2.33;;;1.10;;
19727;SDS011;10015;52.530;13.390;2022-08-01T13:31:33;1.55;;;1.30;;
19727;SDS011;10015;52.530;13.390;2022-08-01T13:34:00;1.65;;;1.10;;
19727;SDS011;10015;52.530;13.390;2022-08-01T13:36:26;1.95;;;1.35;;
19727;SDS011;10015;52.530;13.390;2022-08-01T13:38:54;2.47;;;1.23;;
19727;SDS011;10015;52.530;13.390;2022-08-01T13:41:39;2.50;;;1.25;;
19727;SDS011;10015;52.530;13.390;2022-08-01T13:44:05;2.58;;;1.38;;
19727;SDS011;10015;52.530;13.390;2022-08-01T13:46:34;1.70;;;1.17;;
19727;SDS011;10015;52.530;13.390;2022-08-01T13:49:02;1.20;;;1.10;;
19727;SDS011;10015;52.530;13.390;2022-08-01T13:51:28;1.40;;;1.25;;
19727;SDS011;10015;52.530;13.390;2022-08-01T13:53:54;1.63;;;1.52;;
19727;SDS011;10015;52.530;13.390;2022-08-01T13:56:20;1.80;;;1.20;;
19727;SDS011;10015;52.530;13.390;2022-08-01T13:58:46;1.42;;;1.17;;
19727;SDS011;10015;52.530;13.390;2022-08-01T14:01:12;1.30;;;1.20;;
19727;SDS011;10015;52.530;13.390;2022-08-01T14:03:38;2.58;;;1.60;;
19727;SDS011;10015;52.530;13.390;2022-08-01T14:06:04;1.95;;;1.30;;
19727;SDS011;10015;52.530;13.390;2022-08-01T14:08:30;2.65;;;1.17;;
19727;SDS011;10015;52.530;13.390;2022-08-01T14:10:56;1.00;;;0.90;;
19727;SDS011;10015;52.530;13.390;2022-08-01T14:13:24;1.85;;;1.15;;
19727;SDS011;10015;52.530;13.390;2022-08-01T14:15:51;1.30;;;1.20;;
19727;SDS011;10015;52.530;13.390;2022-08-01T14:18:17;1.27;;;1.10;;
19727;SDS011;10015;52.530;13.390;2022-08-01T14:20:43;1.27;;;0.98;;
19727;SDS011;10015;52.530;13.390;2022-08-01T14:23:09;1.10;;;1.00;;
19727;SDS011;10015;52.530;13.390;2022-08-01T14:25:39;1.17;;;0.98;;
19727;SDS011;10015;52.530;13.390;2022-08-01T14:28:06;0.80;;;0.77;;
19727;SDS011;10015;52.530;13.390;2022-08-01T14:30:32;0.77;;;0.60;;
19727;SDS011;10015;52.530;13.390;2022-08-01T14:32:59;1.95;;;0.98;;
19727;SDS011;10015;52.530;13.390;2022-08-01T14:35:25;0.95;;;0.95;;
19727;SDS011;10015;52.530;13.390;2022-08-01T14:37:51;2.10;;;0.80;;
19727;SDS011;10015;52.530;13.390;2022-08-01T14:40:17;2.90;;;0.90;;
19727;SDS011;10015;52.530;13.390;2022-08-01T14:42:43;0.93;;;0.80;;
19727;SDS011;10015;52.530;13.390;2022-08-01T14:45:10;0.75;;;0.70;;
19727;SDS011;10015;52.530;13.390;2022-08-01T14:47:37;0.82;;;0.82;;
19727;SDS011;10015;52.530;13.390;2022-08-01T14:50:04;0.80;;;0.80;;
19727;SDS011;10015;52.530;13.390;2022-08-01T14:52:32;1.85;;;1.00;;
19727;SDS011;10015;52.530;13.390;2022-08-01T14:54:59;0.73;;;0.73;;
19727;SDS011;10015;52.530;13.390;2022-08-01T14:57:25;2.25;;;0.80;;
19727;SDS011;10015;52.530;13.390;2022-08-01T14:59:51;0.95;;;0.75;;
19727;SDS011;10015;52.530;13.390;2022-08-01T15:02:17;2.15;;;1.02;;
19727;SDS011;10015;52.530;13.390;2022-08-01T15:04:46;1.58;;;1.10;;
19727;SDS011;10015;52.530;13.390;2022-08-01T15:07:13;2.38;;;1.40;;
19727;SDS011;10015;52.530;13.390;2022-08-01T15:09:40;5.50;;;1.63;;
19727;SDS011;10015;52.530;13.390;2022-08-01T15:12:06;2.75;;;1.60;;
19727;SDS011;10015;52.530;13.390;2022-08-01T15:14:32;1.60;;;1.50;;
19727;SDS011;10015;52.530;13.390;2022-08-01T15:17:17;1.80;;;1.50;;
19727;SDS011;10015;52.530;13.390;2022-08-01T15:19:54;1.70;;;1.35;;
19727;SDS011;10015;52.530;13.390;2022-08-01T15:22:21;1.67;;;1.40;;
19727;SDS011;10015;52.530;13.390;2022-08-01T15:24:49;1.50;;;1.38;;
19727;SDS011;10015;52.530;13.390;2022-08-01T15:27:15;4.43;;;1.25;;
19727;SDS011;10015;52.530;13.390;2022-08-01T15:29:41;2.80;;;1.40;;
19727;SDS011;10015;52.530;13.390;2022-08-01T15:32:08;1.98;;;1.10;;
19727;SDS011;10015;52.530;13.390;2022-08-01T15:34:37;1.58;;;1.13;;
19727;SDS011;10015;52.530;13.390;2022-08-01T15:37:03;1.13;;;1.05;;
19727;SDS011;10015;52.530;13.390;2022-08-01T15:39:30;1.42;;;1.15;;
19727;SDS011;10015;52.530;13.390;2022-08-01T15:42:03;1.23;;;0.95;;
19727;SDS011;10015;52.530;13.390;2022-08-01T15:44:31;2.97;;;1.13;;
19727;SDS011;10015;52.530;13.390;2022-08-01T15:46:59;0.88;;;0.73;;
19727;SDS011;10015;52.530;13.390;2022-08-01T15:49:26;0.82;;;0.82;;
19727;SDS011;10015;52.530;13.390;2022-08-01T15:51:52;2.08;;;1.00;;
19727;SDS011;10015;52.530;13.390;2022-08-01T15:54:18;2.33;;;1.40;;
19727;SDS011;10015;52.530;13.390;2022-08-01T15:56:45;1.20;;;1.00;;
19727;SDS011;10015;52.530;13.390;2022-08-01T15:59:11;1.35;;;1.20;;
19727;SDS011;10015;52.530;13.390;2022-08-01T16:01:38;1.75;;;0.95;;
19727;SDS011;10015;52.530;13.390;2022-08-01T16:04:05;1.13;;;0.90;;
19727;SDS011;10015;52.530;13.390;2022-08-01T16:06:31;1.67;;;0.98;;
19727;SDS011;10015;52.530;13.390;2022-08-01T16:08:58;1.35;;;0.93;;
19727;SDS011;10015;52.530;13.390;2022-08-01T16:11:30;2.17;;;1.15;;
19727;SDS011;10015;52.530;13.390;2022-08-01T16:13:56;1.45;;;1.10;;
19727;SDS011;10015;52.530;13.390;2022-08-01T16:16:22;3.03;;;0.93;;
19727;SDS011;10015;52.530;13.390;2022-08-01T16:18:49;4.20;;;0.90;;
19727;SDS011;10015;52.530;13.390;2022-08-01T16:21:15;1.15;;;0.90;;
19727;SDS011;10015;52.530;13.390;2022-08-01T16:23:42;3.75;;;1.00;;
19727;SDS011;10015;52.530;13.390;2022-08-01T16:26:09;1.85;;;0.80;;
19727;SDS011;10015;52.530;13.390;2022-08-01T16:28:36;1.10;;;1.00;;
19727;SDS011;10015;52.530;13.390;2022-08-01T16:31:02;1.05;;;0.85;;
19727;SDS011;10015;52.530;13.390;2022-08-01T16:33:29;1.42;;;0.90;;
19727;SDS011;10015;52.530;13.390;2022-08-01T16:35:57;2.72;;;0.90;;
19727;SDS011;10015;52.530;13.390;2022-08-01T16:38:22;2.38;;;1.20;;
19727;SDS011;10015;52.530;13.390;2022-08-01T16:40:49;1.15;;;0.90;;
19727;SDS011;10015;52.530;13.390;2022-08-01T16:43:16;2.15;;;1.08;;
19727;SDS011;10015;52.530;13.390;2022-08-01T16:45:43;1.30;;;1.20;;
19727;SDS011;10015;52.530;13.390;2022-08-01T16:48:10;4.35;;;1.20;;
19727;SDS011;10015;52.530;13.390;2022-08-01T16:50:39;1.63;;;1.30;;
19727;SDS011;10015;52.530;13.390;2022-08-01T16:53:06;1.70;;;1.30;;
19727;SDS011;10015;52.530;13.390;2022-08-01T16:55:32;3.33;;;1.23;;
19727;SDS011;10015;52.530;13.390;2022-08-01T16:57:58;3.63;;;1.17;;
19727;SDS011;10015;52.530;13.390;2022-08-01T17:00:24;1.30;;;1.20;;
19727;SDS011;10015;52.530;13.390;2022-08-01T17:02:50;1.60;;;0.95;;
19727;SDS011;10015;52.530;13.390;2022-08-01T17:05:17;1.55;;;1.30;;
19727;SDS011;10015;52.530;13.390;2022-08-01T17:07:44;1.67;;;1.20;;
19727;SDS011;10015;52.530;13.390;2022-08-01T17:10:11;2.80;;;1.20;;
19727;SDS011;10015;52.530;13.390;2022-08-01T17:12:39;1.33;;;0.98;;
19727;SDS011;10015;52.530;13.390;2022-08-01T17:15:06;2.67;;;1.20;;
19727;SDS011;10015;52.530;13.390;2022-08-01T17:17:33;2.05;;;1.20;;
19727;SDS011;10015;52.530;13.390;2022-08-01T17:19:59;1.88;;;1.35;;
19727;SDS011;10015;52.530;13.390;2022-08-01T17:22:25;1.75;;;1.30;;
19727;SDS011;10015;52.530;13.390;2022-08-01T17:24:51;2.30;;;1.15;;
19727;SDS011;10015;52.530;13.390;2022-08-01T17:27:17;2.22;;;1.38;;
19727;SDS011;10015;52.530;13.390;2022-08-01T17:29:44;2.13;;;1.48;;
19727;SDS011;10015;52.530;13.390;2022-08-01T17:32:10;1.20;;;1.10;;
19727;SDS011;10015;52.530;13.390;2022-08-01T17:34:37;2.15;;;1.40;;
19727;SDS011;10015;52.530;13.390;2022-08-01T17:37:04;1.75;;;1.20;;
19727;SDS011;10015;52.530;13.390;2022-08-01T17:39:30;2.30;;;1.30;;
19727;SDS011;10015;52.530;13.390;2022-08-01T17:41:56;2.17;;;1.20;;
19727;SDS011;10015;52.530;13.390;2022-08-01T17:44:22;2.50;;;1.30;;
19727;SDS011;10015;52.530;13.390;2022-08-01T17:46:50;1.95;;;1.40;;
19727;SDS011;10015;52.530;13.390;2022-08-01T17:49:16;4.47;;;1.50;;
19727;SDS011;10015;52.530;13.390;2022-08-01T17:51:42;1.50;;;1.40;;
19727;SDS011;10015;52.530;13.390;2022-08-01T17:54:08;3.58;;;1.27;;
19727;SDS011;10015;52.530;13.390;2022-08-01T17:56:34;3.33;;;2.63;;
19727;SDS011;10015;52.530;13.390;2022-08-01T17:59:00;1.52;;;1.42;;
19727;SDS011;10015;52.530;13.390;2022-08-01T18:01:26;1.13;;;1.05;;
19727;SDS011;10015;52.530;13.390;2022-08-01T18:03:52;2.10;;;1.27;;
19727;SDS011;10015;52.530;13.390;2022-08-01T18:06:18;1.65;;;1.30;;
19727;SDS011;10015;52.530;13.390;2022-08-01T18:08:45;2.08;;;1.38;;
19727;SDS011;10015;52.530;13.390;2022-08-01T18:11:12;1.92;;;1.20;;
19727;SDS011;10015;52.530;13.390;2022-08-01T18:13:38;1.20;;;1.10;;
19727;SDS011;10015;52.530;13.390;2022-08-01T18:16:04;1.58;;;1.30;;
19727;SDS011;10015;52.530;13.390;2022-08-01T18:18:31;2.97;;;1.40;;
19727;SDS011;10015;52.530;13.390;2022-08-01T18:20:57;2.72;;;1.45;;
19727;SDS011;10015;52.530;13.390;2022-08-01T18:23:23;5.45;;;1.52;;
19727;SDS011;10015;52.530;13.390;2022-08-01T18:25:49;2.33;;;1.25;;
19727;SDS011;10015;52.530;13.390;2022-08-01T18:28:15;1.45;;;1.30;;
19727;SDS011;10015;52.530;13.390;2022-08-01T18:30:41;2.38;;;1.23;;
19727;SDS011;10015;52.530;13.390;2022-08-01T18:33:07;2.25;;;1.40;;
19727;SDS011;10015;52.530;13.390;2022-08-01T18:35:33;2.33;;;1.35;;
19727;SDS011;10015;52.530;13.390;2022-08-01T18:37:59;3.33;;;1.35;;
19727;SDS011;10015;52.530;13.390;2022-08-01T18:40:24;1.58;;;1.20;;
19727;SDS011;10015;52.530;13.390;2022-08-01T18:42:50;3.13;;;1.50;;
19727;SDS011;10015;52.530;13.390;2022-08-01T18:45:18;2.85;;;1.60;;
19727;SDS011;10015;52.530;13.390;2022-08-01T18:47:44;3.08;;;1.67;;
19727;SDS011;10015;52.530;13.390;2022-08-01T18:50:13;2.95;;;1.75;;
19727;SDS011;10015;52.530;13.390;2022-08-01T18:52:39;4.07;;;1.88;;
19727;SDS011;10015;52.530;13.390;2022-08-01T18:55:07;4.93;;;1.77;;
19727;SDS011;10015;52.530;13.390;2022-08-01T18:57:33;3.65;;;1.60;;
19727;SDS011;10015;52.530;13.390;2022-08-01T18:59:59;2.60;;;1.70;;
19727;SDS011;10015;52.530;13.390;2022-08-01T19:02:25;2.95;;;1.63;;
19727;SDS011;10015;52.530;13.390;2022-08-01T19:04:51;3.83;;;1.60;;
19727;SDS011;10015;52.530;13.390;2022-08-01T19:07:18;6.65;;;1.65;;
19727;SDS011;10015;52.530;13.390;2022-08-01T19:09:43;1.77;;;1.42;;
19727;SDS011;10015;52.530;13.390;2022-08-01T19:12:09;2.00;;;1.20;;
19727;SDS011;10015;52.530;13.390;2022-08-01T19:14:35;1.55;;;1.23;;
19727;SDS011;10015;52.530;13.390;2022-08-01T19:17:01;1.70;;;1.30;;
19727;SDS011;10015;52.530;13.390;2022-08-01T19:19:27;1.58;;;1.20;;
19727;SDS011;10015;52.530;13.390;2022-08-01T19:21:53;1.40;;;1.30;;
19727;SDS011;10015;52.530;13.390;2022-08-01T19:24:19;2.08;;;1.60;;
19727;SDS011;10015;52.530;13.390;2022-08-01T19:26:49;2.42;;;1.25;;
19727;SDS011;10015;52.530;13.390;2022-08-01T19:29:21;2.88;;;1.30;;
19727;SDS011;10015;52.530;13.390;2022-08-01T19:31:50;2.25;;;1.30;;